Time;durP1;ratioP1;P1;durP2;ratioP2;P2;SDS_P1;SDS_P2;PMS_P1;PMS_P2;Temp;Humidity;BMP_temperature;BMP_pressure;BME280_temperature;BME280_humidity;BME280_pressure;Samples;Min_cycle;Max_cycle;Signal;HPM_P1;HPM_P2
2023/05/26 00:01:15;;;;;;;16.13;6.55;;;;;;;;;;5050589;28;20477;-68
2023/05/26 00:03:44;;;;;;;20.77;5.95;;;;;;;;;;5051615;28;20117;-68
2023/05/26 00:06:13;;;;;;;20.02;6.78;;;;;;;;;;5051409;28;20053;-67
2023/05/26 00:08:40;;;;;;;20.58;7.80;;;;;;;;;;5041235;28;20040;-68
2023/05/26 00:11:06;;;;;;;20.80;7.50;;;;;;;;;;5050957;28;20535;-67
2023/05/26 00:13:32;;;;;;;23.33;8.00;;;;;;;;;;5058126;28;20060;-67
2023/05/26 00:15:58;;;;;;;18.58;5.85;;;;;;;;;;5026187;28;20033;-67
2023/05/26 00:18:26;;;;;;;23.23;7.05;;;;;;;;;;5041435;28;20033;-67
2023/05/26 00:20:53;;;;;;;19.42;6.50;;;;;;;;;;5047940;28;20029;-67
2023/05/26 00:23:20;;;;;;;17.38;5.45;;;;;;;;;;5051548;28;20124;-68
2023/05/26 00:25:46;;;;;;;22.00;8.00;;;;;;;;;;5051202;28;20052;-67
2023/05/26 00:28:12;;;;;;;19.40;8.05;;;;;;;;;;5048211;28;20037;-67
2023/05/26 00:30:38;;;;;;;21.88;7.78;;;;;;;;;;5049972;28;20033;-67
2023/05/26 00:33:04;;;;;;;18.45;6.20;;;;;;;;;;5050901;28;20676;-67
2023/05/26 00:35:31;;;;;;;17.77;7.38;;;;;;;;;;5048561;28;20396;-67
2023/05/26 00:37:57;;;;;;;17.80;6.85;;;;;;;;;;5041098;28;20048;-67
2023/05/26 00:40:23;;;;;;;23.20;7.03;;;;;;;;;;5049281;28;20032;-67
2023/05/26 00:42:49;;;;;;;29.90;8.20;;;;;;;;;;5048526;28;20049;-67
2023/05/26 00:45:15;;;;;;;29.70;7.07;;;;;;;;;;5046327;28;20380;-68
2023/05/26 00:47:41;;;;;;;21.38;6.20;;;;;;;;;;5040524;28;20138;-68
2023/05/26 00:50:08;;;;;;;17.67;6.30;;;;;;;;;;5046884;28;20048;-67
2023/05/26 00:52:34;;;;;;;25.05;7.22;;;;;;;;;;5047176;28;20715;-68
2023/05/26 00:55:01;;;;;;;21.95;6.03;;;;;;;;;;5047606;28;20041;-67
2023/05/26 00:57:28;;;;;;;27.70;7.03;;;;;;;;;;5049439;28;20120;-67
2023/05/26 00:59:58;;;;;;;16.08;6.38;;;;;;;;;;5049222;28;20037;-67
2023/05/26 01:02:25;;;;;;;17.98;6.72;;;;;;;;;;5048376;28;20049;-68
2023/05/26 01:04:54;;;;;;;21.48;6.60;;;;;;;;;;5048824;28;20065;-67
2023/05/26 01:07:21;;;;;;;21.30;6.32;;;;;;;;;;5045378;28;20099;-66
2023/05/26 01:09:48;;;;;;;15.60;5.90;;;;;;;;;;5047636;28;20139;-67
2023/05/26 01:12:15;;;;;;;20.88;6.82;;;;;;;;;;5032803;28;20048;-67
2023/05/26 01:14:44;;;;;;;22.60;6.25;;;;;;;;;;5036650;28;20624;-67
2023/05/26 01:17:20;;;;;;;16.02;6.43;;;;;;;;;;5048253;28;20124;-67
2023/05/26 01:20:07;;;;;;;13.70;6.32;;;;;;;;;;5027339;28;20045;-67
2023/05/26 01:22:50;;;;;;;17.27;8.10;;;;;;;;;;5046321;28;20033;-68
2023/05/26 01:25:16;;;;;;;;;;;;;;;;;;5047390;28;20060;-67
2023/05/26 01:27:55;;;;;;;21.25;7.60;;;;;;;;;;5051072;28;19962;-66
2023/05/26 01:30:21;;;;;;;19.23;6.05;;;;;;;;;;5029876;28;20479;-66
2023/05/26 01:32:48;;;;;;;19.38;6.78;;;;;;;;;;5049677;28;20402;-66
2023/05/26 01:35:15;;;;;;;16.42;6.35;;;;;;;;;;5048808;28;20044;-66
2023/05/26 01:37:42;;;;;;;18.65;5.93;;;;;;;;;;5049132;28;20041;-66
2023/05/26 01:40:09;;;;;;;14.20;6.18;;;;;;;;;;5049801;28;20052;-67
2023/05/26 01:42:39;;;;;;;28.10;7.40;;;;;;;;;;5037450;28;20135;-67
2023/05/26 01:45:12;;;;;;;14.60;6.15;;;;;;;;;;5046125;28;20516;-66
2023/05/26 01:47:38;;;;;;;15.85;5.68;;;;;;;;;;5042850;28;20148;-66
2023/05/26 01:50:06;;;;;;;22.00;6.00;;;;;;;;;;5047219;28;20052;-67
2023/05/26 01:52:32;;;;;;;14.25;6.85;;;;;;;;;;5037884;28;20536;-66
2023/05/26 01:55:01;;;;;;;18.15;6.38;;;;;;;;;;5048701;28;20090;-67
2023/05/26 01:57:28;;;;;;;14.55;5.93;;;;;;;;;;5050205;28;20045;-67
2023/05/26 01:59:54;;;;;;;18.65;7.50;;;;;;;;;;5046868;28;20420;-67
2023/05/26 02:02:20;;;;;;;20.40;6.85;;;;;;;;;;5048643;28;20045;-67
2023/05/26 02:04:46;;;;;;;17.98;8.00;;;;;;;;;;5050701;28;20072;-67
2023/05/26 02:07:12;;;;;;;20.35;7.88;;;;;;;;;;5054122;28;20550;-66
2023/05/26 02:09:39;;;;;;;20.13;6.97;;;;;;;;;;5039343;28;20036;-67
2023/05/26 02:12:09;;;;;;;29.10;7.25;;;;;;;;;;5044050;28;20462;-67
2023/05/26 02:14:36;;;;;;;23.02;7.88;;;;;;;;;;5051541;28;20036;-67
2023/05/26 02:17:03;;;;;;;22.13;6.78;;;;;;;;;;5052502;28;20130;-67
2023/05/26 02:19:29;;;;;;;21.13;6.45;;;;;;;;;;5041039;28;20036;-66
2023/05/26 02:21:55;;;;;;;23.13;7.53;;;;;;;;;;5051382;28;20071;-66
2023/05/26 02:24:22;;;;;;;22.92;7.25;;;;;;;;;;5049804;28;20087;-67
2023/05/26 02:26:48;;;;;;;24.05;7.65;;;;;;;;;;5051797;28;20495;-67
2023/05/26 02:29:14;;;;;;;16.73;6.00;;;;;;;;;;5042131;28;20037;-67
2023/05/26 02:31:40;;;;;;;16.02;7.20;;;;;;;;;;5035635;28;20040;-67
2023/05/26 02:34:07;;;;;;;18.48;7.00;;;;;;;;;;5052376;28;20455;-67
2023/05/26 02:36:33;;;;;;;17.83;6.10;;;;;;;;;;5046974;28;20037;-67
2023/05/26 02:38:59;;;;;;;19.70;6.50;;;;;;;;;;5053582;28;20041;-67
2023/05/26 02:41:26;;;;;;;19.13;6.72;;;;;;;;;;5050255;28;20040;-67
2023/05/26 02:43:52;;;;;;;20.35;8.40;;;;;;;;;;5045357;28;20453;-67
2023/05/26 02:46:18;;;;;;;13.82;5.97;;;;;;;;;;5050163;28;20118;-67
2023/05/26 02:48:45;;;;;;;15.98;6.05;;;;;;;;;;5034213;28;20091;-67
2023/05/26 02:51:11;;;;;;;19.38;6.88;;;;;;;;;;5048178;28;20045;-67
2023/05/26 02:53:40;;;;;;;17.52;6.90;;;;;;;;;;5051378;28;20033;-66
2023/05/26 02:56:06;;;;;;;12.20;5.90;;;;;;;;;;5051709;28;20549;-67
2023/05/26 02:58:32;;;;;;;17.23;6.05;;;;;;;;;;5051926;28;20036;-67
2023/05/26 03:00:59;;;;;;;18.13;7.00;;;;;;;;;;5048865;28;20487;-67
2023/05/26 03:03:26;;;;;;;15.95;6.32;;;;;;;;;;5043078;28;20036;-67
2023/05/26 03:05:52;;;;;;;18.33;5.68;;;;;;;;;;5051333;28;20036;-67
2023/05/26 03:08:18;;;;;;;22.10;6.22;;;;;;;;;;5051798;28;20045;-67
2023/05/26 03:10:44;;;;;;;13.73;6.25;;;;;;;;;;5051094;28;20406;-67
2023/05/26 03:13:10;;;;;;;17.73;6.40;;;;;;;;;;5051441;28;20444;-67
2023/05/26 03:15:37;;;;;;;25.70;6.93;;;;;;;;;;5046659;28;20048;-66
2023/05/26 03:18:03;;;;;;;14.40;5.68;;;;;;;;;;5047515;28;20057;-66
2023/05/26 03:20:29;;;;;;;20.52;7.53;;;;;;;;;;5049725;28;20122;-66
2023/05/26 03:22:56;;;;;;;16.25;6.10;;;;;;;;;;5049199;28;20063;-66
2023/05/26 03:25:22;;;;;;;22.92;6.80;;;;;;;;;;5050886;28;20442;-66
2023/05/26 03:27:49;;;;;;;22.70;5.82;;;;;;;;;;5049174;28;20119;-66
2023/05/26 03:30:15;;;;;;;16.25;6.13;;;;;;;;;;5046704;28;20033;-66
2023/05/26 03:32:41;;;;;;;13.98;6.78;;;;;;;;;;5048132;28;20041;-66
2023/05/26 03:35:08;;;;;;;13.35;5.60;;;;;;;;;;5050351;28;20351;-67
2023/05/26 03:37:34;;;;;;;20.13;5.85;;;;;;;;;;5050984;28;20056;-67
2023/05/26 03:40:00;;;;;;;17.52;6.35;;;;;;;;;;5042331;28;20049;-67
2023/05/26 03:42:26;;;;;;;18.13;6.72;;;;;;;;;;5049228;28;20059;-67
2023/05/26 03:44:52;;;;;;;21.55;6.78;;;;;;;;;;5047505;28;20199;-67
2023/05/26 03:47:18;;;;;;;20.38;6.53;;;;;;;;;;5046949;28;20029;-68
2023/05/26 03:49:44;;;;;;;20.05;7.03;;;;;;;;;;5050542;28;20554;-67
2023/05/26 03:52:11;;;;;;;14.45;6.80;;;;;;;;;;5046023;28;20501;-67
2023/05/26 03:54:37;;;;;;;17.08;5.70;;;;;;;;;;5043867;28;20038;-67
2023/05/26 03:57:03;;;;;;;14.18;6.32;;;;;;;;;;5030629;28;20041;-68
2023/05/26 03:59:29;;;;;;;22.60;6.18;;;;;;;;;;5036229;28;20045;-68
2023/05/26 04:01:56;;;;;;;17.42;6.35;;;;;;;;;;5031956;28;20040;-67
2023/05/26 04:04:22;;;;;;;23.63;6.65;;;;;;;;;;5044239;28;20501;-67
2023/05/26 04:06:48;;;;;;;17.48;4.93;;;;;;;;;;5031387;28;20067;-66
2023/05/26 04:09:14;;;;;;;19.45;5.63;;;;;;;;;;5039377;28;20226;-66
2023/05/26 04:11:40;;;;;;;20.50;6.13;;;;;;;;;;5047890;28;20044;-66
2023/05/26 04:14:07;;;;;;;18.60;6.15;;;;;;;;;;5032604;28;20449;-66
2023/05/26 04:16:33;;;;;;;18.23;6.25;;;;;;;;;;5042389;28;20117;-67
2023/05/26 04:18:59;;;;;;;15.15;5.88;;;;;;;;;;5046696;28;20052;-67
2023/05/26 04:21:25;;;;;;;17.38;6.28;;;;;;;;;;5044016;28;20056;-66
2023/05/26 04:23:52;;;;;;;16.70;5.43;;;;;;;;;;5043060;28;20029;-67
2023/05/26 04:26:18;;;;;;;21.55;6.63;;;;;;;;;;5031696;28;20127;-68
2023/05/26 04:28:45;;;;;;;18.10;7.28;;;;;;;;;;5049020;28;20029;-67
2023/05/26 04:31:16;;;;;;;20.92;6.72;;;;;;;;;;5046047;28;20052;-67
2023/05/26 04:33:44;;;;;;;21.58;6.57;;;;;;;;;;5044884;28;20029;-67
2023/05/26 04:36:16;;;;;;;18.35;6.80;;;;;;;;;;5049122;28;20068;-67
2023/05/26 04:38:45;;;;;;;12.55;5.57;;;;;;;;;;5048657;28;20083;-67
2023/05/26 04:41:11;;;;;;;17.05;6.25;;;;;;;;;;5048719;28;20095;-67
2023/05/26 04:43:38;;;;;;;17.50;6.15;;;;;;;;;;5048118;28;20036;-67
2023/05/26 04:46:04;;;;;;;23.60;6.85;;;;;;;;;;5037842;28;20049;-68
2023/05/26 04:48:30;;;;;;;19.80;6.03;;;;;;;;;;5048500;28;20082;-67
2023/05/26 04:50:56;;;;;;;20.60;5.70;;;;;;;;;;5048684;28;20535;-67
2023/05/26 04:53:23;;;;;;;16.92;5.90;;;;;;;;;;5047512;28;20078;-67
2023/05/26 04:55:49;;;;;;;20.23;7.30;;;;;;;;;;5037869;28;20033;-67
2023/05/26 04:58:15;;;;;;;14.90;5.95;;;;;;;;;;5043767;28;20083;-67
2023/05/26 05:00:42;;;;;;;15.52;5.78;;;;;;;;;;5048292;28;20479;-67
2023/05/26 05:03:08;;;;;;;18.48;5.88;;;;;;;;;;5047405;28;20575;-67
2023/05/26 05:05:34;;;;;;;21.08;6.45;;;;;;;;;;5040948;28;20067;-67
2023/05/26 05:08:00;;;;;;;11.75;6.05;;;;;;;;;;5048110;28;20036;-67
2023/05/26 05:10:27;;;;;;;19.45;6.55;;;;;;;;;;5043305;28;20041;-67
2023/05/26 05:12:53;;;;;;;22.38;8.02;;;;;;;;;;5047946;28;20091;-67
2023/05/26 05:15:19;;;;;;;15.70;5.43;;;;;;;;;;5042803;28;20043;-67
2023/05/26 05:17:46;;;;;;;20.42;5.65;;;;;;;;;;5044967;28;20045;-67
2023/05/26 05:20:12;;;;;;;24.58;7.88;;;;;;;;;;5043453;28;20041;-67
2023/05/26 05:22:39;;;;;;;18.38;5.55;;;;;;;;;;5039034;28;20125;-67
2023/05/26 05:25:05;;;;;;;16.60;6.35;;;;;;;;;;5040476;28;20037;-67
2023/05/26 05:27:31;;;;;;;16.30;6.07;;;;;;;;;;5046724;28;20513;-67
2023/05/26 05:29:57;;;;;;;18.15;6.47;;;;;;;;;;5039733;28;20040;-67
2023/05/26 05:32:24;;;;;;;18.48;7.13;;;;;;;;;;5042578;28;20113;-67
2023/05/26 05:34:50;;;;;;;23.52;6.00;;;;;;;;;;5025551;28;20082;-67
2023/05/26 05:37:16;;;;;;;21.83;8.25;;;;;;;;;;5037071;28;20047;-67
2023/05/26 05:39:42;;;;;;;17.67;6.40;;;;;;;;;;5048638;28;20041;-66
2023/05/26 05:42:08;;;;;;;17.38;6.38;;;;;;;;;;5052127;28;20150;-66
2023/05/26 05:44:35;;;;;;;14.68;6.65;;;;;;;;;;5050146;28;20066;-66
2023/05/26 05:47:01;;;;;;;18.23;7.13;;;;;;;;;;5049378;28;20059;-66
2023/05/26 05:49:27;;;;;;;17.00;6.57;;;;;;;;;;5052572;28;20634;-66
2023/05/26 05:51:53;;;;;;;21.48;6.35;;;;;;;;;;5041304;28;20037;-67
2023/05/26 05:54:19;;;;;;;19.08;6.13;;;;;;;;;;5049639;28;20041;-66
2023/05/26 05:56:46;;;;;;;19.83;6.65;;;;;;;;;;5031144;28;20037;-67
2023/05/26 05:59:12;;;;;;;23.02;7.63;;;;;;;;;;5042090;28;20378;-67
2023/05/26 06:01:38;;;;;;;13.57;6.82;;;;;;;;;;5032881;28;20040;-67
2023/05/26 06:04:04;;;;;;;17.75;6.22;;;;;;;;;;5033307;28;20048;-67
2023/05/26 06:06:31;;;;;;;18.60;5.80;;;;;;;;;;5050988;28;20045;-67
2023/05/26 06:08:57;;;;;;;23.17;6.25;;;;;;;;;;5038921;28;20040;-67
2023/05/26 06:11:23;;;;;;;18.35;5.90;;;;;;;;;;5049185;28;20422;-67
2023/05/26 06:13:49;;;;;;;16.70;4.70;;;;;;;;;;5053484;28;20048;-67
2023/05/26 06:16:16;;;;;;;28.10;6.53;;;;;;;;;;5052604;28;20139;-67
2023/05/26 06:18:42;;;;;;;17.25;7.82;;;;;;;;;;5050247;28;20041;-67
2023/05/26 06:21:08;;;;;;;18.35;6.63;;;;;;;;;;5050873;28;20098;-66
2023/05/26 06:23:34;;;;;;;16.30;6.68;;;;;;;;;;5053033;28;20160;-66
2023/05/26 06:26:00;;;;;;;18.23;6.63;;;;;;;;;;5048328;28;20037;-66
2023/05/26 06:28:27;;;;;;;20.30;6.43;;;;;;;;;;5036187;28;20340;-67
2023/05/26 06:30:53;;;;;;;14.18;6.57;;;;;;;;;;5050167;28;20475;-66
2023/05/26 06:33:19;;;;;;;15.18;5.88;;;;;;;;;;5046478;28;20131;-67
2023/05/26 06:35:45;;;;;;;17.10;4.93;;;;;;;;;;5045043;28;20030;-67
2023/05/26 06:38:11;;;;;;;15.05;6.15;;;;;;;;;;5044690;28;20059;-66
2023/05/26 06:40:37;;;;;;;21.05;5.65;;;;;;;;;;5051337;28;20411;-66
2023/05/26 06:43:03;;;;;;;18.00;5.60;;;;;;;;;;5028648;28;20045;-66
2023/05/26 06:45:30;;;;;;;13.80;6.25;;;;;;;;;;5050392;28;20049;-66
2023/05/26 06:47:56;;;;;;;20.17;5.20;;;;;;;;;;5051412;28;20130;-67
2023/05/26 06:50:22;;;;;;;20.85;6.50;;;;;;;;;;5050886;28;20142;-66
2023/05/26 06:52:48;;;;;;;19.52;5.80;;;;;;;;;;5043564;28;20049;-66
2023/05/26 06:55:16;;;;;;;16.25;5.85;;;;;;;;;;5034596;28;20405;-66
2023/05/26 06:57:42;;;;;;;12.35;5.35;;;;;;;;;;5049797;28;20076;-66
2023/05/26 07:00:08;;;;;;;11.65;5.00;;;;;;;;;;5051542;28;20124;-66
2023/05/26 07:02:35;;;;;;;9.30;4.55;;;;;;;;;;5052366;28;20047;-66
2023/05/26 07:05:01;;;;;;;15.23;4.95;;;;;;;;;;5030891;28;20067;-67
2023/05/26 07:07:28;;;;;;;16.27;6.53;;;;;;;;;;5045048;28;20037;-67
2023/05/26 07:09:55;;;;;;;15.70;6.40;;;;;;;;;;5051476;28;20041;-67
2023/05/26 07:12:21;;;;;;;11.95;5.40;;;;;;;;;;5052826;28;20099;-67
2023/05/26 07:14:47;;;;;;;19.13;5.07;;;;;;;;;;5048562;28;20049;-67
2023/05/26 07:17:14;;;;;;;14.23;4.50;;;;;;;;;;5038116;28;20041;-68
2023/05/26 07:19:40;;;;;;;15.73;5.88;;;;;;;;;;5058943;28;20048;-67
2023/05/26 07:22:06;;;;;;;19.48;5.38;;;;;;;;;;5051981;28;20043;-67
2023/05/26 07:24:32;;;;;;;16.70;4.88;;;;;;;;;;5050464;28;20601;-66
2023/05/26 07:26:59;;;;;;;9.68;4.40;;;;;;;;;;5044784;28;20037;-68
2023/05/26 07:29:25;;;;;;;20.33;5.07;;;;;;;;;;5050886;28;20058;-67
2023/05/26 07:31:51;;;;;;;16.13;4.97;;;;;;;;;;5052194;28;20120;-67
2023/05/26 07:34:18;;;;;;;16.90;5.60;;;;;;;;;;5049274;28;20040;-67
2023/05/26 07:36:44;;;;;;;13.48;4.15;;;;;;;;;;5051146;28;20194;-66
2023/05/26 07:39:10;;;;;;;16.65;5.13;;;;;;;;;;5049286;28;20045;-66
2023/05/26 07:41:36;;;;;;;10.68;4.28;;;;;;;;;;5038478;28;20120;-67
2023/05/26 07:44:02;;;;;;;13.27;5.03;;;;;;;;;;5051120;28;20124;-67
2023/05/26 07:46:29;;;;;;;16.52;4.93;;;;;;;;;;5050993;28;20069;-67
2023/05/26 07:48:55;;;;;;;12.13;5.40;;;;;;;;;;5042556;28;20430;-67
2023/05/26 07:51:21;;;;;;;12.85;6.05;;;;;;;;;;5046477;28;20487;-67
2023/05/26 07:53:47;;;;;;;11.48;4.75;;;;;;;;;;5026498;28;20041;-66
2023/05/26 07:56:13;;;;;;;14.45;6.03;;;;;;;;;;5054317;28;20064;-66
2023/05/26 07:58:40;;;;;;;16.20;4.70;;;;;;;;;;5048595;28;20044;-66
2023/05/26 08:01:07;;;;;;;12.27;5.40;;;;;;;;;;5046897;28;20477;-67
2023/05/26 08:03:34;;;;;;;13.27;5.25;;;;;;;;;;5046823;28;20072;-67
2023/05/26 08:06:00;;;;;;;15.00;5.97;;;;;;;;;;5048131;28;20051;-66
2023/05/26 08:08:26;;;;;;;12.35;5.15;;;;;;;;;;5043461;28;20087;-67
2023/05/26 08:10:53;;;;;;;9.38;4.55;;;;;;;;;;5047105;28;20036;-67
2023/05/26 08:13:19;;;;;;;10.38;5.13;;;;;;;;;;5048460;28;20540;-66
2023/05/26 08:15:45;;;;;;;20.70;5.55;;;;;;;;;;5041179;28;20426;-66
2023/05/26 08:18:12;;;;;;;11.45;4.97;;;;;;;;;;5050854;28;20079;-67
2023/05/26 08:20:38;;;;;;;15.75;5.25;;;;;;;;;;5048181;28;20083;-67
2023/05/26 08:23:04;;;;;;;11.63;5.35;;;;;;;;;;5044929;28;20045;-67
2023/05/26 08:25:30;;;;;;;15.23;5.45;;;;;;;;;;5046468;28;20041;-67
2023/05/26 08:27:57;;;;;;;12.18;3.83;;;;;;;;;;5031270;28;20037;-67
2023/05/26 08:30:23;;;;;;;16.67;5.20;;;;;;;;;;5045996;28;20029;-67
2023/05/26 08:32:49;;;;;;;16.25;5.15;;;;;;;;;;5031370;28;20041;-66
2023/05/26 08:35:15;;;;;;;13.25;3.97;;;;;;;;;;5032944;28;20134;-67
2023/05/26 08:37:41;;;;;;;14.02;4.95;;;;;;;;;;5049391;28;20041;-67
2023/05/26 08:40:09;;;;;;;17.02;4.80;;;;;;;;;;5049033;28;20051;-67
2023/05/26 08:42:40;;;;;;;15.65;4.97;;;;;;;;;;5045072;28;20519;-67
2023/05/26 08:45:06;;;;;;;13.10;4.28;;;;;;;;;;5043715;28;20041;-67
2023/05/26 08:47:38;;;;;;;7.80;4.05;;;;;;;;;;5046799;28;20116;-67
2023/05/26 08:50:05;;;;;;;13.88;5.05;;;;;;;;;;5042733;28;20141;-67
2023/05/26 08:52:32;;;;;;;14.02;4.65;;;;;;;;;;5047791;28;20406;-68
2023/05/26 08:54:58;;;;;;;17.50;5.35;;;;;;;;;;5053075;28;20080;-68
2023/05/26 08:57:26;;;;;;;8.90;3.55;;;;;;;;;;5046998;28;20044;-67
2023/05/26 08:59:53;;;;;;;17.92;4.78;;;;;;;;;;5040300;28;20066;-68
2023/05/26 09:02:40;;;;;;;15.10;4.68;;;;;;;;;;5044788;28;20049;-68
2023/05/26 09:05:06;;;;;;;17.70;4.85;;;;;;;;;;5042847;28;20056;-67
2023/05/26 09:07:32;;;;;;;16.48;4.38;;;;;;;;;;5046559;28;20045;-68
2023/05/26 09:10:03;;;;;;;12.93;4.50;;;;;;;;;;5046948;28;20030;-68
2023/05/26 09:12:35;;;;;;;10.25;4.10;;;;;;;;;;5044474;28;20478;-68
2023/05/26 09:15:01;;;;;;;13.60;5.20;;;;;;;;;;5036318;28;20276;-68
2023/05/26 09:17:32;;;;;;;15.57;5.32;;;;;;;;;;5045819;28;20397;-68
2023/05/26 09:19:58;;;;;;;11.63;5.00;;;;;;;;;;5051018;28;20533;-68
2023/05/26 09:22:31;;;;;;;11.15;4.38;;;;;;;;;;5048588;28;20044;-68
2023/05/26 09:24:57;;;;;;;9.77;4.03;;;;;;;;;;5033223;28;20116;-68
2023/05/26 09:27:24;;;;;;;16.10;4.40;;;;;;;;;;5048148;28;20482;-68
2023/05/26 09:29:51;;;;;;;14.32;4.80;;;;;;;;;;5042762;28;20103;-68
2023/05/26 09:32:17;;;;;;;10.25;4.55;;;;;;;;;;5043062;28;20486;-68
2023/05/26 09:34:43;;;;;;;11.63;4.45;;;;;;;;;;5045959;28;20363;-68
2023/05/26 09:37:10;;;;;;;8.15;4.57;;;;;;;;;;5042954;28;20037;-68
2023/05/26 09:39:36;;;;;;;15.50;4.38;;;;;;;;;;5027677;28;20660;-68
2023/05/26 09:42:08;;;;;;;12.43;4.75;;;;;;;;;;5047515;28;20029;-68
2023/05/26 09:44:34;;;;;;;12.75;4.15;;;;;;;;;;5046505;28;20540;-68
2023/05/26 09:47:01;;;;;;;16.45;5.10;;;;;;;;;;5043316;28;20463;-68
2023/05/26 09:49:27;;;;;;;10.50;4.30;;;;;;;;;;5037028;28;20054;-68
2023/05/26 09:51:54;;;;;;;13.40;4.90;;;;;;;;;;5039396;28;20041;-68
2023/05/26 09:54:21;;;;;;;13.50;4.82;;;;;;;;;;5027077;28;20456;-68
2023/05/26 09:56:57;;;;;;;12.65;4.30;;;;;;;;;;5047232;28;20110;-68
2023/05/26 09:59:26;;;;;;;14.63;4.53;;;;;;;;;;5044818;28;20037;-68
2023/05/26 10:01:52;;;;;;;13.23;4.57;;;;;;;;;;5040812;28;20040;-68
2023/05/26 10:04:18;;;;;;;16.73;4.30;;;14.10;99.90;;;;;;5049378;28;20049;-68
2023/05/26 10:06:46;;;;;;;9.38;4.30;;;;;;;;;;5046691;28;20037;-68
2023/05/26 10:09:12;;;;;;;14.40;5.25;;;;;;;;;;5036644;28;20103;-68
2023/05/26 10:11:41;;;;;;;9.82;4.40;;;;;;;;;;5044706;28;20095;-69
2023/05/26 10:14:07;;;;;;;16.35;4.57;;;;;;;;;;5042031;28;20083;-69
2023/05/26 10:16:34;;;;;;;12.57;4.60;;;;;;;;;;5045850;28;20384;-69
2023/05/26 10:19:01;;;;;;;18.27;5.05;;;;;;;;;;5046151;28;20506;-68
2023/05/26 10:21:30;;;;;;;18.58;5.25;;;;;;;;;;5047150;28;20036;-68
2023/05/26 10:24:03;;;;;;;10.63;5.05;;;;;;;;;;5050644;28;20068;-69
2023/05/26 10:26:52;;;;;;;12.60;3.83;;;;;;;;;;5046825;28;20049;-68
2023/05/26 10:29:22;;;;;;;12.82;4.68;;;;;;;;;;5044786;28;20056;-69
2023/05/26 10:31:48;;;;;;;13.60;4.70;;;;;;;;;;5046838;28;20041;-68
2023/05/26 10:34:15;;;;;;;13.85;5.07;;;;;;;;;;5035656;28;20030;-68
2023/05/26 10:36:41;;;;;;;14.68;4.63;;;;;;;;;;5055280;28;20433;-69
2023/05/26 10:39:11;;;;;;;16.35;4.57;;;;;;;;;;5054017;28;20115;-69
2023/05/26 10:41:38;;;;;;;15.32;4.50;;;;;;;;;;5049820;28;20159;-68
2023/05/26 10:44:04;;;;;;;12.02;4.35;;;;;;;;;;5050479;28;20037;-69
2023/05/26 10:46:47;;;;;;;11.13;5.88;;;;;;;;;;5046801;28;20132;-69
2023/05/26 10:49:20;;;;;;;13.75;4.53;;;;;;;;;;5025874;28;20037;-69
2023/05/26 10:51:52;;;;;;;16.17;4.60;;;;;;;;;;5047332;28;20044;-69
2023/05/26 10:54:21;;;;;;;12.20;4.13;;;;;;;;;;5050771;28;20494;-69
2023/05/26 10:56:49;;;;;;;12.90;4.93;;;;;;;;;;5058648;28;20095;-68
2023/05/26 10:59:22;;;;;;;19.30;5.45;;;;;;;;;;5047727;28;20061;-68
2023/05/26 11:01:54;;;;;;;12.20;4.22;;;;;;;;;;5052312;28;20152;-68
2023/05/26 11:04:21;;;;;;;12.68;5.65;;;;;;;;;;5054743;28;20171;-69
2023/05/26 11:07:00;;;;;;;13.73;5.53;;;;;;;;;;5046752;28;20072;-69
2023/05/26 11:09:27;;;;;;;13.25;4.65;;;;;;;;;;5050097;28;20029;-69
2023/05/26 11:11:53;;;;;;;12.05;4.95;;;;;;;;;;5046053;28;20120;-69
2023/05/26 11:14:24;;;;;;;14.68;5.07;;;;;;;;;;5054024;28;20443;-69
2023/05/26 11:16:50;;;;;;;16.48;5.72;;;;;;;;;;5040096;28;20044;-69
2023/05/26 11:19:26;;;;;;;10.98;4.65;;;;;;;;;;5057889;28;20041;-69
2023/05/26 11:21:52;;;;;;;13.98;5.10;;;;;;;;;;5051979;28;20121;-69
2023/05/26 11:24:19;;;;;;;16.70;4.82;;;;;;;;;;5053919;28;20087;-69
2023/05/26 11:26:45;;;;;;;13.23;5.28;;;;;;;;;;5043205;28;20132;-69
2023/05/26 11:29:11;;;;;;;17.55;6.00;;;;;;;;;;5032074;28;20040;-69
2023/05/26 11:31:38;;;;;;;15.65;5.47;;;;;;;;;;5047077;28;20057;-69
2023/05/26 11:34:05;;;;;;;14.13;5.22;;;;;;;;;;5051852;28;20041;-69
2023/05/26 11:36:31;;;;;;;18.60;6.78;;;;;;;;;;5056062;28;20052;-69
2023/05/26 11:39:01;;;;;;;21.60;6.60;;;;;;;;;;5058982;28;20040;-69
2023/05/26 11:41:28;;;;;;;17.00;6.68;;;;;;;;;;5047820;28;20048;-69
2023/05/26 11:43:54;;;;;;;21.38;7.28;;;;;;;;;;5052218;28;20587;-69
2023/05/26 11:46:21;;;;;;;20.85;6.35;;;;;;;;;;5050408;28;20125;-69
2023/05/26 11:48:48;;;;;;;15.65;7.15;;;;;;;;;;5058141;28;20445;-69
2023/05/26 11:51:15;;;;;;;16.23;6.13;;;;;;;;;;5044073;28;20057;-69
2023/05/26 11:53:42;;;;;;;23.58;7.03;;;;;;;;;;5050293;28;20113;-69
2023/05/26 11:56:09;;;;;;;16.65;5.72;;;;;;;;;;5033584;28;20040;-68
2023/05/26 11:58:43;;;;;;;14.07;7.15;;;;;;;;;;5048775;28;20044;-69
2023/05/26 12:01:10;;;;;;;22.60;6.13;;;;;;;;;;5047374;28;20044;-69
2023/05/26 12:03:38;;;;;;;19.23;6.47;;;;;;;;;;5052084;28;20490;-69
2023/05/26 12:06:05;;;;;;;19.38;5.80;;;;;;;;;;5048343;28;20117;-69
2023/05/26 12:08:41;;;;;;;12.68;6.00;;;;;;;;;;5046198;28;20474;-69
2023/05/26 12:11:34;;;;;;;15.07;5.72;;;;;;;;;;5050666;28;20042;-68
2023/05/26 12:14:01;;;;;;;15.57;6.60;;;;;;;;;;5043410;28;20359;-68
2023/05/26 12:16:34;;;;;;;14.25;6.65;;;;;;;;;;5055194;28;20072;-68
2023/05/26 12:19:02;;;;;;;13.60;5.45;;;;;;;;;;5050565;28;20040;-69
2023/05/26 12:21:29;;;;;;;16.52;5.53;;;;;;;;;;5055364;28;20041;-69
2023/05/26 12:23:56;;;;;;;13.27;4.82;;;;;;;;;;5051852;28;20097;-68
2023/05/26 12:26:23;;;;;;;20.73;7.28;;;;;;;;;;5052938;28;20037;-68
2023/05/26 12:29:06;;;;;;;17.60;4.93;;;;;;;;;;5047716;28;20075;-68
2023/05/26 12:31:32;;;;;;;;;;;;;;;;;;5048668;28;20517;-69
2023/05/26 12:33:58;;;;;;;14.38;5.00;;;;;;;;;;5056207;28;20011;-68
2023/05/26 12:36:24;;;;;;;16.92;5.68;;;;;;;;;;5051078;28;20037;-68
2023/05/26 12:38:51;;;;;;;14.60;5.55;;;;;;;;;;5045934;28;20033;-69
2023/05/26 12:41:17;;;;;;;16.52;6.28;;;;;;;;;;5049417;28;20033;-69
2023/05/26 12:43:43;;;;;;;16.02;4.88;;;;;;;;;;5040453;28;20131;-69
2023/05/26 12:46:09;;;;;;;15.13;5.65;;;;;;;;;;5045179;28;20065;-69
2023/05/26 12:48:35;;;;;;;11.77;6.15;;;;;;;;;;5043535;28;20478;-69
2023/05/26 12:51:01;;;;;;;16.02;5.63;;;;;;;;;;5050318;28;20114;-69
2023/05/26 12:53:27;;;;;;;15.82;5.07;;;;;;;;;;5049088;28;20048;-69
2023/05/26 12:55:53;;;;;;;16.52;4.88;;;;;;;;;;5042281;28;20045;-69
2023/05/26 12:58:21;;;;;;;17.40;5.28;;;;;;;;;;5047113;28;20036;-69
2023/05/26 13:00:47;;;;;;;21.05;5.30;;;;;;;;;;5039819;28;20374;-69
2023/05/26 13:03:14;;;;;;;14.02;5.43;;;;;;;;;;5047862;28;20036;-69
2023/05/26 13:05:40;;;;;;;12.82;4.85;;;;;;;;;;5048706;28;20079;-69
2023/05/26 13:08:07;;;;;;;12.52;4.32;;;;;;;;;;5051497;28;20055;-69
2023/05/26 13:10:33;;;;;;;13.43;4.57;;;;;;;;;;5034913;28;20045;-69
2023/05/26 13:12:59;;;;;;;17.50;6.63;;;;;;;;;;5045693;28;20123;-69
2023/05/26 13:15:25;;;;;;;11.57;5.00;;;;;;;;;;5034512;28;20637;-69
2023/05/26 13:17:52;;;;;;;11.82;4.40;;;;;;;;;;5049968;28;20509;-69
2023/05/26 13:20:18;;;;;;;13.15;5.07;;;;;;;;;;5042161;28;20099;-69
2023/05/26 13:22:45;;;;;;;14.02;5.88;;;;;;;;;;5045959;28;20034;-69
2023/05/26 13:25:14;;;;;;;15.68;5.20;;;;;;;;;;5036606;28;20115;-68
2023/05/26 13:27:40;;;;;;;12.82;5.38;;;;;;;;;;5044339;28;20037;-69
2023/05/26 13:30:07;;;;;;;16.90;5.72;;;;;;;;;;5044300;28;20399;-69
2023/05/26 13:32:33;;;;;;;15.27;5.93;;;;;;;;;;5047946;28;20440;-69
2023/05/26 13:34:59;;;;;;;11.88;4.78;;;;;;;;;;5044448;28;20037;-69
2023/05/26 13:37:26;;;;;;;13.15;5.00;;;;;;;;;;5054936;28;20102;-69
2023/05/26 13:39:52;;;;;;;13.20;5.93;;;;;;;;;;5052001;28;20143;-68
2023/05/26 13:42:18;;;;;;;15.30;5.68;;;;;;;;;;5055307;28;20135;-68
2023/05/26 13:44:44;;;;;;;14.45;5.65;;;;;;;;;;5044479;28;20041;-68
2023/05/26 13:47:10;;;;;;;17.83;6.70;;;;;;;;;;5049740;28;20463;-68
2023/05/26 13:49:36;;;;;;;18.75;6.78;;;;;;;;;;5029366;28;20404;-68
2023/05/26 13:52:04;;;;;;;18.63;6.13;;;;;;;;;;5040111;28;20406;-68
2023/05/26 13:54:30;;;;;;;13.90;5.97;;;;;;;;;;5044751;28;20041;-68
2023/05/26 13:56:57;;;;;;;20.88;7.68;;;;;;;;;;5051375;28;20037;-69
2023/05/26 13:59:23;;;;;;;16.70;6.07;;;;;;;;;;5060855;28;20423;-68
2023/05/26 14:01:49;;;;;;;20.42;6.05;;;;;;;;;;5050794;28;20067;-68
2023/05/26 14:04:15;;;;;;;19.33;6.55;;;;;;;;;;5049304;28;20516;-69
2023/05/26 14:06:41;;;;;;;15.27;6.28;;;;;;;;;;5053922;28;20076;-69
2023/05/26 14:09:08;;;;;;;21.92;6.10;;;;;;;;;;5061379;28;20033;-68
2023/05/26 14:11:34;;;;;;;14.63;6.82;;;;;;;;;;5053816;28;20449;-70
2023/05/26 14:14:01;;;;;;;18.08;5.55;;;;;;;;;;5049043;28;20073;-69
2023/05/26 14:16:27;;;;;;;19.83;6.95;;;;;;;;;;5055921;28;20036;-68
2023/05/26 14:18:53;;;;;;;20.15;6.25;;;;;;;;;;5051274;28;20452;-68
2023/05/26 14:21:19;;;;;;;16.48;6.57;;;;;;;;;;5053664;28;20460;-68
2023/05/26 14:23:45;;;;;;;15.55;6.30;;;15.20;99.40;;;;;;5052864;28;20079;-68
2023/05/26 14:26:11;;;;;;;19.17;6.13;;;15.50;99.90;;;;;;5024035;28;20072;-68
2023/05/26 14:28:37;;;;;;;14.82;6.35;;;15.50;99.90;;;;;;5049500;28;20084;-68